sensor_id;sensor_type;location;lat;lon;timestamp;temperature;humidity
15717;DHT22;7960;50.908;4.204;2023-03-31T00:01:21;11.70;99.90
15717;DHT22;7960;50.908;4.204;2023-03-31T00:03:50;11.60;99.90
15717;DHT22;7960;50.908;4.204;2023-03-31T00:06:27;11.70;99.90
15717;DHT22;7960;50.908;4.204;2023-03-31T00:08:54;11.60;99.90
15717;DHT22;7960;50.908;4.204;2023-03-31T00:11:27;11.70;99.90
15717;DHT22;7960;50.908;4.204;2023-03-31T00:13:55;11.60;99.90
15717;DHT22;7960;50.908;4.204;2023-03-31T00:16:24;11.70;99.90
15717;DHT22;7960;50.908;4.204;2023-03-31T00:18:51;11.70;99.90
15717;DHT22;7960;50.908;4.204;2023-03-31T00:21:20;11.60;99.90
15717;DHT22;7960;50.908;4.204;2023-03-31T00:23:50;11.60;99.90
15717;DHT22;7960;50.908;4.204;2023-03-31T00:26:18;11.60;99.90
15717;DHT22;7960;50.908;4.204;2023-03-31T00:28:48;11.50;99.90
15717;DHT22;7960;50.908;4.204;2023-03-31T00:31:15;11.60;99.90
15717;DHT22;7960;50.908;4.204;2023-03-31T00:33:42;11.60;99.90
15717;DHT22;7960;50.908;4.204;2023-03-31T00:36:09;11.50;99.90
15717;DHT22;7960;50.908;4.204;2023-03-31T00:38:36;11.50;99.90
15717;DHT22;7960;50.908;4.204;2023-03-31T00:41:03;11.50;99.90
15717;DHT22;7960;50.908;4.204;2023-03-31T00:43:32;11.40;99.90
15717;DHT22;7960;50.908;4.204;2023-03-31T00:46:06;11.30;99.90
15717;DHT22;7960;50.908;4.204;2023-03-31T00:48:38;11.30;99.90
15717;DHT22;7960;50.908;4.204;2023-03-31T00:51:07;11.30;99.90
15717;DHT22;7960;50.908;4.204;2023-03-31T00:53:35;11.30;99.90
15717;DHT22;7960;50.908;4.204;2023-03-31T00:56:08;11.30;99.90
15717;DHT22;7960;50.908;4.204;2023-03-31T00:58:37;11.30;99.90
15717;DHT22;7960;50.908;4.204;2023-03-31T01:01:12;11.30;99.90
15717;DHT22;7960;50.908;4.204;2023-03-31T01:03:41;11.20;99.90
15717;DHT22;7960;50.908;4.204;2023-03-31T01:06:12;11.00;99.90
15717;DHT22;7960;50.908;4.204;2023-03-31T01:08:40;11.00;99.90
15717;DHT22;7960;50.908;4.204;2023-03-31T01:11:10;11.00;99.90
15717;DHT22;7960;50.908;4.204;2023-03-31T01:13:38;10.90;99.90
15717;DHT22;7960;50.908;4.204;2023-03-31T01:16:08;10.90;99.90
15717;DHT22;7960;50.908;4.204;2023-03-31T01:18:36;11.00;99.90
15717;DHT22;7960;50.908;4.204;2023-03-31T01:21:29;11.00;99.90
15717;DHT22;7960;50.908;4.204;2023-03-31T01:27:23;11.00;99.90
15717;DHT22;7960;50.908;4.204;2023-03-31T01:30:08;10.90;99.90
15717;DHT22;7960;50.908;4.204;2023-03-31T01:33:02;10.90;99.90
15717;DHT22;7960;50.908;4.204;2023-03-31T01:39:03;10.80;99.90
15717;DHT22;7960;50.908;4.204;2023-03-31T01:41:48;10.80;99.90
15717;DHT22;7960;50.908;4.204;2023-03-31T01:44:27;10.80;99.90
15717;DHT22;7960;50.908;4.204;2023-03-31T01:47:01;10.80;99.90
15717;DHT22;7960;50.908;4.204;2023-03-31T01:49:38;10.80;99.90
15717;DHT22;7960;50.908;4.204;2023-03-31T01:52:11;10.80;99.90
15717;DHT22;7960;50.908;4.204;2023-03-31T01:54:46;10.80;99.90
15717;DHT22;7960;50.908;4.204;2023-03-31T01:57:21;10.80;99.90
15717;DHT22;7960;50.908;4.204;2023-03-31T01:59:53;10.80;99.90
15717;DHT22;7960;50.908;4.204;2023-03-31T02:02:25;10.80;99.90
15717;DHT22;7960;50.908;4.204;2023-03-31T02:04:56;10.70;99.90
15717;DHT22;7960;50.908;4.204;2023-03-31T02:07:28;10.80;99.90
15717;DHT22;7960;50.908;4.204;2023-03-31T02:10:00;10.80;99.90
15717;DHT22;7960;50.908;4.204;2023-03-31T02:12:31;10.70;99.90
15717;DHT22;7960;50.908;4.204;2023-03-31T02:15:01;10.70;99.90
15717;DHT22;7960;50.908;4.204;2023-03-31T02:17:29;10.70;99.90
15717;DHT22;7960;50.908;4.204;2023-03-31T02:20:00;10.70;99.90
15717;DHT22;7960;50.908;4.204;2023-03-31T02:22:32;10.70;99.90
15717;DHT22;7960;50.908;4.204;2023-03-31T02:25:03;10.90;99.90
15717;DHT22;7960;50.908;4.204;2023-03-31T02:27:35;10.80;99.90
15717;DHT22;7960;50.908;4.204;2023-03-31T02:30:05;10.60;99.90
15717;DHT22;7960;50.908;4.204;2023-03-31T02:32:36;10.60;99.90
15717;DHT22;7960;50.908;4.204;2023-03-31T02:35:04;10.60;99.90
15717;DHT22;7960;50.908;4.204;2023-03-31T02:37:32;10.70;99.90
15717;DHT22;7960;50.908;4.204;2023-03-31T02:40:02;10.60;99.90
15717;DHT22;7960;50.908;4.204;2023-03-31T02:42:35;10.70;99.90
15717;DHT22;7960;50.908;4.204;2023-03-31T02:45:03;10.60;99.90
15717;DHT22;7960;50.908;4.204;2023-03-31T02:47:31;10.70;99.90
15717;DHT22;7960;50.908;4.204;2023-03-31T02:49:59;10.80;99.90
15717;DHT22;7960;50.908;4.204;2023-03-31T02:52:42;10.80;99.90
15717;DHT22;7960;50.908;4.204;2023-03-31T02:55:37;10.80;99.90
15717;DHT22;7960;50.908;4.204;2023-03-31T02:58:27;10.80;99.90
15717;DHT22;7960;50.908;4.204;2023-03-31T03:01:17;10.90;99.90
15717;DHT22;7960;50.908;4.204;2023-03-31T03:04:00;10.70;99.90
15717;DHT22;7960;50.908;4.204;2023-03-31T03:06:40;10.80;99.90
15717;DHT22;7960;50.908;4.204;2023-03-31T03:09:22;10.80;99.90
15717;DHT22;7960;50.908;4.204;2023-03-31T03:12:06;10.70;99.90
15717;DHT22;7960;50.908;4.204;2023-03-31T03:14:39;10.60;99.90
15717;DHT22;7960;50.908;4.204;2023-03-31T03:17:12;10.60;99.90
15717;DHT22;7960;50.908;4.204;2023-03-31T03:19:41;10.70;99.90
15717;DHT22;7960;50.908;4.204;2023-03-31T03:22:08;10.80;99.90
15717;DHT22;7960;50.908;4.204;2023-03-31T03:24:35;10.70;99.90
15717;DHT22;7960;50.908;4.204;2023-03-31T03:27:04;10.60;99.90
15717;DHT22;7960;50.908;4.204;2023-03-31T03:29:31;10.60;99.90
15717;DHT22;7960;50.908;4.204;2023-03-31T03:31:59;10.50;99.90
15717;DHT22;7960;50.908;4.204;2023-03-31T03:34:26;10.40;99.90
15717;DHT22;7960;50.908;4.204;2023-03-31T03:36:53;10.30;99.90
15717;DHT22;7960;50.908;4.204;2023-03-31T03:39:20;10.20;99.90
15717;DHT22;7960;50.908;4.204;2023-03-31T03:41:47;10.20;99.90
15717;DHT22;7960;50.908;4.204;2023-03-31T03:44:14;10.10;99.90
15717;DHT22;7960;50.908;4.204;2023-03-31T03:46:41;10.10;99.90
15717;DHT22;7960;50.908;4.204;2023-03-31T03:49:09;10.20;99.90
15717;DHT22;7960;50.908;4.204;2023-03-31T03:51:36;10.10;99.90
15717;DHT22;7960;50.908;4.204;2023-03-31T03:54:04;10.10;99.90
15717;DHT22;7960;50.908;4.204;2023-03-31T03:56:30;10.10;99.90
15717;DHT22;7960;50.908;4.204;2023-03-31T03:58:57;10.10;99.90
15717;DHT22;7960;50.908;4.204;2023-03-31T04:01:25;10.10;99.90
15717;DHT22;7960;50.908;4.204;2023-03-31T04:03:52;10.10;99.90
15717;DHT22;7960;50.908;4.204;2023-03-31T04:06:20;10.00;99.90
15717;DHT22;7960;50.908;4.204;2023-03-31T04:08:47;10.00;99.90
15717;DHT22;7960;50.908;4.204;2023-03-31T04:11:16;9.80;99.90
15717;DHT22;7960;50.908;4.204;2023-03-31T04:13:43;9.90;99.90
15717;DHT22;7960;50.908;4.204;2023-03-31T04:16:10;9.90;99.90
15717;DHT22;7960;50.908;4.204;2023-03-31T04:18:37;9.70;99.90
15717;DHT22;7960;50.908;4.204;2023-03-31T04:21:07;9.70;99.90
15717;DHT22;7960;50.908;4.204;2023-03-31T04:23:39;9.70;99.90
15717;DHT22;7960;50.908;4.204;2023-03-31T04:26:11;9.60;99.90
15717;DHT22;7960;50.908;4.204;2023-03-31T04:28:38;9.70;99.90
15717;DHT22;7960;50.908;4.204;2023-03-31T04:31:09;9.60;99.90
15717;DHT22;7960;50.908;4.204;2023-03-31T04:33:39;9.60;99.90
15717;DHT22;7960;50.908;4.204;2023-03-31T04:36:10;9.60;99.90
15717;DHT22;7960;50.908;4.204;2023-03-31T04:38:44;9.60;99.90
15717;DHT22;7960;50.908;4.204;2023-03-31T04:41:12;9.60;99.90
15717;DHT22;7960;50.908;4.204;2023-03-31T04:43:39;9.60;99.90
15717;DHT22;7960;50.908;4.204;2023-03-31T04:46:06;9.70;99.90
15717;DHT22;7960;50.908;4.204;2023-03-31T04:48:34;9.70;99.90
15717;DHT22;7960;50.908;4.204;2023-03-31T04:51:01;9.80;99.90
15717;DHT22;7960;50.908;4.204;2023-03-31T04:53:28;9.80;99.90
15717;DHT22;7960;50.908;4.204;2023-03-31T04:55:57;9.80;99.90
15717;DHT22;7960;50.908;4.204;2023-03-31T04:58:24;10.00;99.90
15717;DHT22;7960;50.908;4.204;2023-03-31T05:00:51;10.00;99.90
15717;DHT22;7960;50.908;4.204;2023-03-31T05:03:18;10.00;99.90
15717;DHT22;7960;50.908;4.204;2023-03-31T05:05:46;10.20;99.90
15717;DHT22;7960;50.908;4.204;2023-03-31T05:08:12;10.20;99.90
15717;DHT22;7960;50.908;4.204;2023-03-31T05:10:39;10.30;99.90
15717;DHT22;7960;50.908;4.204;2023-03-31T05:13:10;10.20;99.90
15717;DHT22;7960;50.908;4.204;2023-03-31T05:15:37;10.30;99.90
15717;DHT22;7960;50.908;4.204;2023-03-31T05:18:05;10.30;99.90
15717;DHT22;7960;50.908;4.204;2023-03-31T05:20:32;10.30;99.90
15717;DHT22;7960;50.908;4.204;2023-03-31T05:22:59;10.40;99.90
15717;DHT22;7960;50.908;4.204;2023-03-31T05:25:26;10.40;99.90
15717;DHT22;7960;50.908;4.204;2023-03-31T05:27:58;10.50;99.90
15717;DHT22;7960;50.908;4.204;2023-03-31T05:30:27;10.50;99.90
15717;DHT22;7960;50.908;4.204;2023-03-31T05:32:54;10.50;99.90
15717;DHT22;7960;50.908;4.204;2023-03-31T05:35:22;10.50;99.90
15717;DHT22;7960;50.908;4.204;2023-03-31T05:37:49;10.50;99.90
15717;DHT22;7960;50.908;4.204;2023-03-31T05:40:16;10.50;99.90
15717;DHT22;7960;50.908;4.204;2023-03-31T05:42:43;10.50;99.90
15717;DHT22;7960;50.908;4.204;2023-03-31T05:45:10;10.60;99.90
15717;DHT22;7960;50.908;4.204;2023-03-31T05:47:39;10.60;99.90
15717;DHT22;7960;50.908;4.204;2023-03-31T05:50:06;10.60;99.90
15717;DHT22;7960;50.908;4.204;2023-03-31T05:52:34;10.60;99.90
15717;DHT22;7960;50.908;4.204;2023-03-31T05:55:01;10.60;99.90
15717;DHT22;7960;50.908;4.204;2023-03-31T05:57:28;10.70;99.90
15717;DHT22;7960;50.908;4.204;2023-03-31T05:59:55;10.70;99.90
15717;DHT22;7960;50.908;4.204;2023-03-31T06:02:22;10.80;99.90
15717;DHT22;7960;50.908;4.204;2023-03-31T06:04:51;10.80;99.90
15717;DHT22;7960;50.908;4.204;2023-03-31T06:07:18;10.80;99.90
15717;DHT22;7960;50.908;4.204;2023-03-31T06:09:46;10.90;99.90
15717;DHT22;7960;50.908;4.204;2023-03-31T06:12:13;10.90;99.90
15717;DHT22;7960;50.908;4.204;2023-03-31T06:14:41;10.90;99.90
15717;DHT22;7960;50.908;4.204;2023-03-31T06:17:08;10.90;99.90
15717;DHT22;7960;50.908;4.204;2023-03-31T06:19:35;10.90;99.90
15717;DHT22;7960;50.908;4.204;2023-03-31T06:22:03;10.90;99.90
15717;DHT22;7960;50.908;4.204;2023-03-31T06:24:30;11.00;99.90
15717;DHT22;7960;50.908;4.204;2023-03-31T06:26:57;11.00;99.90
15717;DHT22;7960;50.908;4.204;2023-03-31T06:29:25;11.10;99.90
15717;DHT22;7960;50.908;4.204;2023-03-31T06:31:52;11.10;99.90
15717;DHT22;7960;50.908;4.204;2023-03-31T06:34:19;11.20;99.90
15717;DHT22;7960;50.908;4.204;2023-03-31T06:36:46;11.20;99.90
15717;DHT22;7960;50.908;4.204;2023-03-31T06:39:14;11.30;99.90
15717;DHT22;7960;50.908;4.204;2023-03-31T06:41:41;11.30;99.90
15717;DHT22;7960;50.908;4.204;2023-03-31T06:44:08;11.30;99.90
15717;DHT22;7960;50.908;4.204;2023-03-31T06:46:35;11.40;99.90
15717;DHT22;7960;50.908;4.204;2023-03-31T06:49:02;11.40;99.90
15717;DHT22;7960;50.908;4.204;2023-03-31T06:51:30;11.40;99.90
15717;DHT22;7960;50.908;4.204;2023-03-31T06:53:57;11.40;99.90
15717;DHT22;7960;50.908;4.204;2023-03-31T06:56:25;11.40;99.90
15717;DHT22;7960;50.908;4.204;2023-03-31T06:58:52;11.50;99.90
15717;DHT22;7960;50.908;4.204;2023-03-31T07:01:19;11.40;99.90
15717;DHT22;7960;50.908;4.204;2023-03-31T07:03:46;11.40;99.90
15717;DHT22;7960;50.908;4.204;2023-03-31T07:06:13;11.50;99.90
15717;DHT22;7960;50.908;4.204;2023-03-31T07:08:41;11.50;99.90
15717;DHT22;7960;50.908;4.204;2023-03-31T07:11:07;11.50;99.90
15717;DHT22;7960;50.908;4.204;2023-03-31T07:13:36;11.60;99.90
15717;DHT22;7960;50.908;4.204;2023-03-31T07:16:03;11.50;99.90
15717;DHT22;7960;50.908;4.204;2023-03-31T07:18:31;11.50;99.90
15717;DHT22;7960;50.908;4.204;2023-03-31T07:20:59;11.50;99.90
15717;DHT22;7960;50.908;4.204;2023-03-31T07:23:26;11.50;99.90
15717;DHT22;7960;50.908;4.204;2023-03-31T07:25:53;11.50;99.90
15717;DHT22;7960;50.908;4.204;2023-03-31T07:28:20;11.50;99.90
15717;DHT22;7960;50.908;4.204;2023-03-31T07:30:48;11.50;99.90
15717;DHT22;7960;50.908;4.204;2023-03-31T07:33:15;11.50;99.90
15717;DHT22;7960;50.908;4.204;2023-03-31T07:35:43;11.50;99.90
15717;DHT22;7960;50.908;4.204;2023-03-31T07:38:10;11.50;99.90
15717;DHT22;7960;50.908;4.204;2023-03-31T07:40:38;11.60;99.90
15717;DHT22;7960;50.908;4.204;2023-03-31T07:43:06;11.50;99.90
15717;DHT22;7960;50.908;4.204;2023-03-31T07:45:34;11.60;99.90
15717;DHT22;7960;50.908;4.204;2023-03-31T07:48:02;11.60;99.90
15717;DHT22;7960;50.908;4.204;2023-03-31T07:50:29;11.50;99.90
15717;DHT22;7960;50.908;4.204;2023-03-31T07:52:56;11.50;99.90
15717;DHT22;7960;50.908;4.204;2023-03-31T07:55:23;11.40;99.90
15717;DHT22;7960;50.908;4.204;2023-03-31T07:57:51;11.40;99.90
15717;DHT22;7960;50.908;4.204;2023-03-31T08:00:18;11.40;99.90
15717;DHT22;7960;50.908;4.204;2023-03-31T08:02:46;11.50;99.90
15717;DHT22;7960;50.908;4.204;2023-03-31T08:05:15;11.50;99.90
15717;DHT22;7960;50.908;4.204;2023-03-31T08:07:45;11.40;99.90
15717;DHT22;7960;50.908;4.204;2023-03-31T08:10:14;11.40;99.90
15717;DHT22;7960;50.908;4.204;2023-03-31T08:12:42;11.40;99.90
15717;DHT22;7960;50.908;4.204;2023-03-31T08:15:10;11.40;99.90
15717;DHT22;7960;50.908;4.204;2023-03-31T08:17:37;11.40;99.90
15717;DHT22;7960;50.908;4.204;2023-03-31T08:20:06;11.40;99.90
15717;DHT22;7960;50.908;4.204;2023-03-31T08:22:36;11.40;99.90
15717;DHT22;7960;50.908;4.204;2023-03-31T08:25:03;11.40;99.90
15717;DHT22;7960;50.908;4.204;2023-03-31T08:27:32;11.40;99.90
15717;DHT22;7960;50.908;4.204;2023-03-31T08:29:59;11.40;99.90
15717;DHT22;7960;50.908;4.204;2023-03-31T08:32:29;11.40;99.90
15717;DHT22;7960;50.908;4.204;2023-03-31T08:34:56;11.40;99.90
15717;DHT22;7960;50.908;4.204;2023-03-31T08:37:23;11.40;99.90
15717;DHT22;7960;50.908;4.204;2023-03-31T08:39:51;11.50;99.90
15717;DHT22;7960;50.908;4.204;2023-03-31T08:42:22;11.50;99.90
15717;DHT22;7960;50.908;4.204;2023-03-31T08:44:56;11.50;99.90
15717;DHT22;7960;50.908;4.204;2023-03-31T08:47:26;11.50;99.90
15717;DHT22;7960;50.908;4.204;2023-03-31T08:49:56;11.50;99.90
15717;DHT22;7960;50.908;4.204;2023-03-31T08:52:30;11.50;99.90
15717;DHT22;7960;50.908;4.204;2023-03-31T08:55:01;11.50;99.90
15717;DHT22;7960;50.908;4.204;2023-03-31T08:57:34;11.60;99.90
15717;DHT22;7960;50.908;4.204;2023-03-31T09:00:03;11.60;99.90
15717;DHT22;7960;50.908;4.204;2023-03-31T09:02:36;11.60;99.90
15717;DHT22;7960;50.908;4.204;2023-03-31T09:05:31;11.60;99.90
15717;DHT22;7960;50.908;4.204;2023-03-31T09:08:07;11.70;99.90
15717;DHT22;7960;50.908;4.204;2023-03-31T09:10:44;11.70;99.90
15717;DHT22;7960;50.908;4.204;2023-03-31T09:16:07;11.70;99.90
15717;DHT22;7960;50.908;4.204;2023-03-31T09:18:37;11.70;99.90
15717;DHT22;7960;50.908;4.204;2023-03-31T09:21:13;11.70;99.90
15717;DHT22;7960;50.908;4.204;2023-03-31T09:23:45;11.70;99.90
15717;DHT22;7960;50.908;4.204;2023-03-31T09:26:21;11.70;99.90
15717;DHT22;7960;50.908;4.204;2023-03-31T09:28:51;11.70;99.90
15717;DHT22;7960;50.908;4.204;2023-03-31T09:31:20;11.70;99.90
15717;DHT22;7960;50.908;4.204;2023-03-31T09:33:50;11.70;99.90
15717;DHT22;7960;50.908;4.204;2023-03-31T09:36:20;11.80;99.90
15717;DHT22;7960;50.908;4.204;2023-03-31T09:38:48;11.80;99.90
15717;DHT22;7960;50.908;4.204;2023-03-31T09:41:17;11.70;99.90
15717;DHT22;7960;50.908;4.204;2023-03-31T09:43:45;11.70;99.90
15717;DHT22;7960;50.908;4.204;2023-03-31T09:46:16;11.60;99.90
15717;DHT22;7960;50.908;4.204;2023-03-31T09:48:51;11.70;99.90
15717;DHT22;7960;50.908;4.204;2023-03-31T09:51:23;11.60;99.90
15717;DHT22;7960;50.908;4.204;2023-03-31T09:53:55;11.50;99.90
15717;DHT22;7960;50.908;4.204;2023-03-31T09:56:44;11.60;99.90
15717;DHT22;7960;50.908;4.204;2023-03-31T09:59:15;11.60;99.90
15717;DHT22;7960;50.908;4.204;2023-03-31T10:01:44;11.60;99.90
15717;DHT22;7960;50.908;4.204;2023-03-31T10:04:19;11.60;99.90
15717;DHT22;7960;50.908;4.204;2023-03-31T10:06:47;11.60;99.90
15717;DHT22;7960;50.908;4.204;2023-03-31T10:09:15;11.60;99.90
15717;DHT22;7960;50.908;4.204;2023-03-31T10:11:54;11.60;99.90
15717;DHT22;7960;50.908;4.204;2023-03-31T10:14:34;11.60;99.90
15717;DHT22;7960;50.908;4.204;2023-03-31T10:17:05;11.60;99.90
15717;DHT22;7960;50.908;4.204;2023-03-31T10:19:34;11.70;99.90
15717;DHT22;7960;50.908;4.204;2023-03-31T10:22:04;11.70;99.90
15717;DHT22;7960;50.908;4.204;2023-03-31T10:24:39;11.70;99.90
15717;DHT22;7960;50.908;4.204;2023-03-31T10:27:17;11.80;99.90
15717;DHT22;7960;50.908;4.204;2023-03-31T10:29:45;11.80;99.90
15717;DHT22;7960;50.908;4.204;2023-03-31T10:32:17;11.80;99.90
15717;DHT22;7960;50.908;4.204;2023-03-31T10:34:47;11.80;99.90
15717;DHT22;7960;50.908;4.204;2023-03-31T10:37:16;11.70;99.90
15717;DHT22;7960;50.908;4.204;2023-03-31T10:39:45;11.70;99.90
15717;DHT22;7960;50.908;4.204;2023-03-31T10:42:20;11.80;99.90
15717;DHT22;7960;50.908;4.204;2023-03-31T10:44:48;11.80;99.90
15717;DHT22;7960;50.908;4.204;2023-03-31T10:47:19;11.90;99.90
15717;DHT22;7960;50.908;4.204;2023-03-31T10:52:18;12.10;99.90
15717;DHT22;7960;50.908;4.204;2023-03-31T10:54:50;12.10;99.90
15717;DHT22;7960;50.908;4.204;2023-03-31T10:57:26;12.10;99.90
15717;DHT22;7960;50.908;4.204;2023-03-31T11:00:05;12.10;99.90
15717;DHT22;7960;50.908;4.204;2023-03-31T11:03:01;12.10;99.90
15717;DHT22;7960;50.908;4.204;2023-03-31T11:05:34;12.00;99.90
15717;DHT22;7960;50.908;4.204;2023-03-31T11:08:21;12.00;99.90
15717;DHT22;7960;50.908;4.204;2023-03-31T11:11:05;12.10;99.90
15717;DHT22;7960;50.908;4.204;2023-03-31T11:13:39;12.10;99.90
15717;DHT22;7960;50.908;4.204;2023-03-31T11:16:15;12.20;99.90
15717;DHT22;7960;50.908;4.204;2023-03-31T11:18:56;12.20;99.90
15717;DHT22;7960;50.908;4.204;2023-03-31T11:21:33;12.20;99.90
15717;DHT22;7960;50.908;4.204;2023-03-31T11:24:08;12.30;99.90
15717;DHT22;7960;50.908;4.204;2023-03-31T11:26:45;12.30;99.90
15717;DHT22;7960;50.908;4.204;2023-03-31T11:29:28;12.30;99.90
15717;DHT22;7960;50.908;4.204;2023-03-31T11:32:11;12.40;99.90
15717;DHT22;7960;50.908;4.204;2023-03-31T11:34:53;12.50;99.90
15717;DHT22;7960;50.908;4.204;2023-03-31T11:37:37;12.50;99.90
15717;DHT22;7960;50.908;4.204;2023-03-31T11:40:26;12.50;99.90
15717;DHT22;7960;50.908;4.204;2023-03-31T11:42:59;12.50;99.90
15717;DHT22;7960;50.908;4.204;2023-03-31T11:45:32;12.50;99.90
15717;DHT22;7960;50.908;4.204;2023-03-31T11:48:04;12.40;99.90
15717;DHT22;7960;50.908;4.204;2023-03-31T11:50:36;12.40;99.90
15717;DHT22;7960;50.908;4.204;2023-03-31T11:53:10;12.30;99.90
15717;DHT22;7960;50.908;4.204;2023-03-31T11:55:41;12.20;99.90
15717;DHT22;7960;50.908;4.204;2023-03-31T11:58:11;12.20;99.90
15717;DHT22;7960;50.908;4.204;2023-03-31T12:00:49;12.20;99.90
15717;DHT22;7960;50.908;4.204;2023-03-31T12:03:21;12.20;99.90
15717;DHT22;7960;50.908;4.204;2023-03-31T12:05:52;12.20;99.90
15717;DHT22;7960;50.908;4.204;2023-03-31T12:08:25;12.20;99.90
15717;DHT22;7960;50.908;4.204;2023-03-31T12:10:57;12.20;99.90
15717;DHT22;7960;50.908;4.204;2023-03-31T12:13:35;12.20;99.90
15717;DHT22;7960;50.908;4.204;2023-03-31T12:16:11;12.10;99.90
15717;DHT22;7960;50.908;4.204;2023-03-31T12:18:44;12.00;99.90
15717;DHT22;7960;50.908;4.204;2023-03-31T12:21:20;12.00;99.90
15717;DHT22;7960;50.908;4.204;2023-03-31T12:23:48;11.90;99.90
15717;DHT22;7960;50.908;4.204;2023-03-31T12:26:28;11.80;99.90
15717;DHT22;7960;50.908;4.204;2023-03-31T12:29:04;11.70;99.90
15717;DHT22;7960;50.908;4.204;2023-03-31T12:31:36;11.60;99.90
15717;DHT22;7960;50.908;4.204;2023-03-31T12:34:09;11.60;99.90
15717;DHT22;7960;50.908;4.204;2023-03-31T12:36:48;11.50;99.90
15717;DHT22;7960;50.908;4.204;2023-03-31T12:39:30;11.50;99.90
15717;DHT22;7960;50.908;4.204;2023-03-31T12:44:56;11.40;99.90
15717;DHT22;7960;50.908;4.204;2023-03-31T12:47:51;11.50;99.90
15717;DHT22;7960;50.908;4.204;2023-03-31T12:50:52;11.50;99.90
15717;DHT22;7960;50.908;4.204;2023-03-31T12:53:28;11.50;99.90
15717;DHT22;7960;50.908;4.204;2023-03-31T12:55:59;11.60;99.90
15717;DHT22;7960;50.908;4.204;2023-03-31T12:58:37;11.70;99.90
15717;DHT22;7960;50.908;4.204;2023-03-31T13:01:07;11.70;99.90
15717;DHT22;7960;50.908;4.204;2023-03-31T13:06:57;11.70;99.90
15717;DHT22;7960;50.908;4.204;2023-03-31T13:09:47;11.70;99.90
15717;DHT22;7960;50.908;4.204;2023-03-31T13:14:47;11.70;99.90
15717;DHT22;7960;50.908;4.204;2023-03-31T13:17:27;11.70;99.90
15717;DHT22;7960;50.908;4.204;2023-03-31T13:20:15;11.70;99.90
15717;DHT22;7960;50.908;4.204;2023-03-31T13:22:44;11.70;99.90
15717;DHT22;7960;50.908;4.204;2023-03-31T13:28:17;11.50;99.90
15717;DHT22;7960;50.908;4.204;2023-03-31T13:30:55;11.60;99.90
15717;DHT22;7960;50.908;4.204;2023-03-31T13:33:31;11.50;99.90
15717;DHT22;7960;50.908;4.204;2023-03-31T13:36:34;11.60;99.90
15717;DHT22;7960;50.908;4.204;2023-03-31T13:39:23;11.60;99.90
15717;DHT22;7960;50.908;4.204;2023-03-31T13:42:00;11.60;99.90
15717;DHT22;7960;50.908;4.204;2023-03-31T13:44:55;11.70;99.90
15717;DHT22;7960;50.908;4.204;2023-03-31T13:50:56;11.70;99.90
15717;DHT22;7960;50.908;4.204;2023-03-31T13:53:38;11.70;99.90
15717;DHT22;7960;50.908;4.204;2023-03-31T13:56:32;11.60;99.90
15717;DHT22;7960;50.908;4.204;2023-03-31T14:02:17;11.50;99.90
15717;DHT22;7960;50.908;4.204;2023-03-31T14:05:22;11.60;99.90
15717;DHT22;7960;50.908;4.204;2023-03-31T14:07:53;11.50;99.90
15717;DHT22;7960;50.908;4.204;2023-03-31T14:10:26;11.50;99.90
15717;DHT22;7960;50.908;4.204;2023-03-31T14:13:04;11.50;99.90
15717;DHT22;7960;50.908;4.204;2023-03-31T14:15:32;11.50;99.90
15717;DHT22;7960;50.908;4.204;2023-03-31T14:18:01;11.60;99.90
15717;DHT22;7960;50.908;4.204;2023-03-31T14:20:34;11.60;99.90
15717;DHT22;7960;50.908;4.204;2023-03-31T14:23:09;11.60;99.90
15717;DHT22;7960;50.908;4.204;2023-03-31T14:25:49;11.50;99.90
15717;DHT22;7960;50.908;4.204;2023-03-31T14:28:50;11.50;99.90
15717;DHT22;7960;50.908;4.204;2023-03-31T14:31:25;11.40;99.90
15717;DHT22;7960;50.908;4.204;2023-03-31T14:34:14;11.30;99.90
15717;DHT22;7960;50.908;4.204;2023-03-31T14:36:49;11.20;99.90
15717;DHT22;7960;50.908;4.204;2023-03-31T14:39:24;11.20;99.90
15717;DHT22;7960;50.908;4.204;2023-03-31T14:41:55;11.20;99.90
15717;DHT22;7960;50.908;4.204;2023-03-31T14:44:24;11.20;99.90
15717;DHT22;7960;50.908;4.204;2023-03-31T14:46:55;11.20;99.90
15717;DHT22;7960;50.908;4.204;2023-03-31T14:49:26;11.10;99.90
15717;DHT22;7960;50.908;4.204;2023-03-31T14:51:54;11.20;99.90
15717;DHT22;7960;50.908;4.204;2023-03-31T14:54:21;11.20;99.90
15717;DHT22;7960;50.908;4.204;2023-03-31T14:56:50;11.20;99.90
15717;DHT22;7960;50.908;4.204;2023-03-31T14:59:23;11.20;99.90
15717;DHT22;7960;50.908;4.204;2023-03-31T15:01:52;11.10;99.90
15717;DHT22;7960;50.908;4.204;2023-03-31T15:04:22;11.10;99.90
15717;DHT22;7960;50.908;4.204;2023-03-31T15:06:50;11.00;99.90
15717;DHT22;7960;50.908;4.204;2023-03-31T15:09:21;11.00;99.90
15717;DHT22;7960;50.908;4.204;2023-03-31T15:11:55;10.90;99.90
15717;DHT22;7960;50.908;4.204;2023-03-31T15:14:28;11.00;99.90
15717;DHT22;7960;50.908;4.204;2023-03-31T15:16:56;10.90;99.90
15717;DHT22;7960;50.908;4.204;2023-03-31T15:19:26;11.00;99.90
15717;DHT22;7960;50.908;4.204;2023-03-31T15:21:55;11.00;99.90
15717;DHT22;7960;50.908;4.204;2023-03-31T15:24:22;11.10;99.90
15717;DHT22;7960;50.908;4.204;2023-03-31T15:26:54;11.10;99.90
15717;DHT22;7960;50.908;4.204;2023-03-31T15:29:28;11.10;99.90
15717;DHT22;7960;50.908;4.204;2023-03-31T15:31:58;11.20;99.90
15717;DHT22;7960;50.908;4.204;2023-03-31T15:34:28;11.20;99.90
15717;DHT22;7960;50.908;4.204;2023-03-31T15:36:58;11.20;99.90
15717;DHT22;7960;50.908;4.204;2023-03-31T15:39:27;11.10;99.90
15717;DHT22;7960;50.908;4.204;2023-03-31T15:41:59;11.10;99.90
15717;DHT22;7960;50.908;4.204;2023-03-31T15:44:35;11.10;99.90
15717;DHT22;7960;50.908;4.204;2023-03-31T15:47:18;11.00;99.90
15717;DHT22;7960;50.908;4.204;2023-03-31T15:49:51;11.00;99.90
15717;DHT22;7960;50.908;4.204;2023-03-31T15:52:29;10.90;99.90
15717;DHT22;7960;50.908;4.204;2023-03-31T15:54:57;10.90;99.90
15717;DHT22;7960;50.908;4.204;2023-03-31T15:57:32;10.80;99.90
15717;DHT22;7960;50.908;4.204;2023-03-31T16:00:01;10.70;99.90
15717;DHT22;7960;50.908;4.204;2023-03-31T16:02:38;10.70;99.90
15717;DHT22;7960;50.908;4.204;2023-03-31T16:05:06;10.50;99.90
15717;DHT22;7960;50.908;4.204;2023-03-31T16:07:45;10.60;99.90
15717;DHT22;7960;50.908;4.204;2023-03-31T16:10:16;10.50;99.90
15717;DHT22;7960;50.908;4.204;2023-03-31T16:12:50;10.40;99.90
15717;DHT22;7960;50.908;4.204;2023-03-31T16:15:20;10.40;99.90
15717;DHT22;7960;50.908;4.204;2023-03-31T16:17:52;10.40;99.90
15717;DHT22;7960;50.908;4.204;2023-03-31T16:20:22;10.40;99.90
15717;DHT22;7960;50.908;4.204;2023-03-31T16:22:52;10.40;99.90
15717;DHT22;7960;50.908;4.204;2023-03-31T16:25:21;10.30;99.90
15717;DHT22;7960;50.908;4.204;2023-03-31T16:27:51;10.30;99.90
15717;DHT22;7960;50.908;4.204;2023-03-31T16:30:34;10.30;99.90
15717;DHT22;7960;50.908;4.204;2023-03-31T16:33:03;10.30;99.90
15717;DHT22;7960;50.908;4.204;2023-03-31T16:35:31;10.30;99.90
15717;DHT22;7960;50.908;4.204;2023-03-31T16:37:58;10.30;99.90
15717;DHT22;7960;50.908;4.204;2023-03-31T16:40:28;10.30;99.90
15717;DHT22;7960;50.908;4.204;2023-03-31T16:43:11;10.30;99.90
15717;DHT22;7960;50.908;4.204;2023-03-31T16:45:41;10.30;99.90
15717;DHT22;7960;50.908;4.204;2023-03-31T16:48:09;10.20;99.90